sensor_id;sensor_type;location;lat;lon;timestamp;temperature;humidity
59067;DHT22;44854;50.838;4.438;2024-02-23T00:01:40;7.20;99.90
59067;DHT22;44854;50.838;4.438;2024-02-23T00:04:09;7.20;99.90
59067;DHT22;44854;50.838;4.438;2024-02-23T00:06:34;7.30;99.90
59067;DHT22;44854;50.838;4.438;2024-02-23T00:09:00;7.30;99.90
59067;DHT22;44854;50.838;4.438;2024-02-23T00:11:26;7.30;99.90
59067;DHT22;44854;50.838;4.438;2024-02-23T00:13:53;7.30;99.90
59067;DHT22;44854;50.838;4.438;2024-02-23T00:16:19;7.20;99.90
59067;DHT22;44854;50.838;4.438;2024-02-23T00:18:45;7.20;99.90
59067;DHT22;44854;50.838;4.438;2024-02-23T00:21:11;7.20;99.90
59067;DHT22;44854;50.838;4.438;2024-02-23T00:23:36;7.10;99.90
59067;DHT22;44854;50.838;4.438;2024-02-23T00:26:02;7.00;99.90
59067;DHT22;44854;50.838;4.438;2024-02-23T00:28:28;6.90;99.90
59067;DHT22;44854;50.838;4.438;2024-02-23T00:30:54;6.70;99.90
59067;DHT22;44854;50.838;4.438;2024-02-23T00:33:20;6.80;99.90
59067;DHT22;44854;50.838;4.438;2024-02-23T00:35:46;6.80;99.90
59067;DHT22;44854;50.838;4.438;2024-02-23T00:38:12;6.80;99.90
59067;DHT22;44854;50.838;4.438;2024-02-23T00:40:38;6.80;99.90
59067;DHT22;44854;50.838;4.438;2024-02-23T00:43:04;6.90;99.90
59067;DHT22;44854;50.838;4.438;2024-02-23T00:45:30;6.80;99.90
59067;DHT22;44854;50.838;4.438;2024-02-23T00:47:55;6.80;99.90
59067;DHT22;44854;50.838;4.438;2024-02-23T00:50:22;6.80;99.90
59067;DHT22;44854;50.838;4.438;2024-02-23T00:52:51;6.80;99.90
59067;DHT22;44854;50.838;4.438;2024-02-23T00:55:18;6.70;99.90
59067;DHT22;44854;50.838;4.438;2024-02-23T00:57:43;6.60;99.90
59067;DHT22;44854;50.838;4.438;2024-02-23T01:00:09;6.60;99.90
59067;DHT22;44854;50.838;4.438;2024-02-23T01:02:35;6.80;99.90
59067;DHT22;44854;50.838;4.438;2024-02-23T01:05:01;6.70;99.90
59067;DHT22;44854;50.838;4.438;2024-02-23T01:07:27;6.70;99.90
59067;DHT22;44854;50.838;4.438;2024-02-23T01:09:54;6.80;99.90
59067;DHT22;44854;50.838;4.438;2024-02-23T01:12:20;6.80;99.90
59067;DHT22;44854;50.838;4.438;2024-02-23T01:14:46;6.70;99.90
59067;DHT22;44854;50.838;4.438;2024-02-23T01:17:14;6.70;99.90
59067;DHT22;44854;50.838;4.438;2024-02-23T01:19:41;6.60;99.90
59067;DHT22;44854;50.838;4.438;2024-02-23T01:22:07;6.80;99.90
59067;DHT22;44854;50.838;4.438;2024-02-23T01:24:33;6.80;99.90
59067;DHT22;44854;50.838;4.438;2024-02-23T01:26:59;6.60;99.90
59067;DHT22;44854;50.838;4.438;2024-02-23T01:29:26;6.60;99.90
59067;DHT22;44854;50.838;4.438;2024-02-23T01:31:51;6.60;99.90
59067;DHT22;44854;50.838;4.438;2024-02-23T01:34:19;6.60;99.90
59067;DHT22;44854;50.838;4.438;2024-02-23T01:36:45;6.60;99.90
59067;DHT22;44854;50.838;4.438;2024-02-23T01:39:11;6.60;99.90
59067;DHT22;44854;50.838;4.438;2024-02-23T01:41:37;6.60;99.90
59067;DHT22;44854;50.838;4.438;2024-02-23T01:44:03;6.50;99.90
59067;DHT22;44854;50.838;4.438;2024-02-23T01:46:28;6.50;99.90
59067;DHT22;44854;50.838;4.438;2024-02-23T01:48:54;6.60;99.90
59067;DHT22;44854;50.838;4.438;2024-02-23T01:51:20;6.50;99.90
59067;DHT22;44854;50.838;4.438;2024-02-23T01:53:47;6.50;99.90
59067;DHT22;44854;50.838;4.438;2024-02-23T01:56:14;6.50;99.90
59067;DHT22;44854;50.838;4.438;2024-02-23T01:58:43;6.60;99.90
59067;DHT22;44854;50.838;4.438;2024-02-23T02:01:12;6.80;99.90
59067;DHT22;44854;50.838;4.438;2024-02-23T02:03:38;6.90;99.90
59067;DHT22;44854;50.838;4.438;2024-02-23T02:06:09;6.90;99.90
59067;DHT22;44854;50.838;4.438;2024-02-23T02:08:35;6.80;99.90
59067;DHT22;44854;50.838;4.438;2024-02-23T02:11:02;6.90;99.90
59067;DHT22;44854;50.838;4.438;2024-02-23T02:13:30;6.90;99.90
59067;DHT22;44854;50.838;4.438;2024-02-23T02:15:59;6.80;99.90
59067;DHT22;44854;50.838;4.438;2024-02-23T02:18:25;6.90;99.90
59067;DHT22;44854;50.838;4.438;2024-02-23T02:20:54;6.80;99.90
59067;DHT22;44854;50.838;4.438;2024-02-23T02:23:20;6.90;99.90
59067;DHT22;44854;50.838;4.438;2024-02-23T02:25:54;6.70;99.90
59067;DHT22;44854;50.838;4.438;2024-02-23T02:28:21;6.70;99.90
59067;DHT22;44854;50.838;4.438;2024-02-23T02:30:47;6.70;99.90
59067;DHT22;44854;50.838;4.438;2024-02-23T02:33:12;6.70;99.90
59067;DHT22;44854;50.838;4.438;2024-02-23T02:35:38;6.80;99.90
59067;DHT22;44854;50.838;4.438;2024-02-23T02:38:04;6.90;99.90
59067;DHT22;44854;50.838;4.438;2024-02-23T02:40:29;7.00;99.90
59067;DHT22;44854;50.838;4.438;2024-02-23T02:42:57;7.00;99.90
59067;DHT22;44854;50.838;4.438;2024-02-23T02:45:23;6.90;99.90
59067;DHT22;44854;50.838;4.438;2024-02-23T02:47:51;7.00;99.90
59067;DHT22;44854;50.838;4.438;2024-02-23T02:50:16;7.10;99.90
59067;DHT22;44854;50.838;4.438;2024-02-23T02:52:42;7.20;99.90
59067;DHT22;44854;50.838;4.438;2024-02-23T02:55:08;7.20;99.90
59067;DHT22;44854;50.838;4.438;2024-02-23T02:57:34;7.00;99.90
59067;DHT22;44854;50.838;4.438;2024-02-23T03:00:04;7.00;99.90
59067;DHT22;44854;50.838;4.438;2024-02-23T03:02:33;7.10;99.90
59067;DHT22;44854;50.838;4.438;2024-02-23T03:04:59;7.20;99.90
59067;DHT22;44854;50.838;4.438;2024-02-23T03:07:24;7.10;99.90
59067;DHT22;44854;50.838;4.438;2024-02-23T03:09:50;7.20;99.90
59067;DHT22;44854;50.838;4.438;2024-02-23T03:12:16;7.10;99.90
59067;DHT22;44854;50.838;4.438;2024-02-23T03:14:43;7.10;99.90
59067;DHT22;44854;50.838;4.438;2024-02-23T03:17:09;7.20;99.90
59067;DHT22;44854;50.838;4.438;2024-02-23T03:19:36;7.10;99.90
59067;DHT22;44854;50.838;4.438;2024-02-23T03:22:01;7.00;99.90
59067;DHT22;44854;50.838;4.438;2024-02-23T03:24:27;7.10;99.90
59067;DHT22;44854;50.838;4.438;2024-02-23T03:26:53;7.20;99.90
59067;DHT22;44854;50.838;4.438;2024-02-23T03:29:18;7.20;99.90
59067;DHT22;44854;50.838;4.438;2024-02-23T03:31:45;7.10;99.90
59067;DHT22;44854;50.838;4.438;2024-02-23T03:34:11;7.10;99.90
59067;DHT22;44854;50.838;4.438;2024-02-23T03:36:38;6.90;99.90
59067;DHT22;44854;50.838;4.438;2024-02-23T03:39:04;6.90;99.90
59067;DHT22;44854;50.838;4.438;2024-02-23T03:41:29;6.90;99.90
59067;DHT22;44854;50.838;4.438;2024-02-23T03:43:55;6.90;99.90
59067;DHT22;44854;50.838;4.438;2024-02-23T03:46:21;7.00;99.90
59067;DHT22;44854;50.838;4.438;2024-02-23T03:48:47;6.90;99.90
59067;DHT22;44854;50.838;4.438;2024-02-23T03:51:13;6.90;99.90
59067;DHT22;44854;50.838;4.438;2024-02-23T03:53:38;7.00;99.90
59067;DHT22;44854;50.838;4.438;2024-02-23T03:56:04;7.10;99.90
59067;DHT22;44854;50.838;4.438;2024-02-23T03:58:30;7.10;99.90
59067;DHT22;44854;50.838;4.438;2024-02-23T04:00:56;7.20;99.90
59067;DHT22;44854;50.838;4.438;2024-02-23T04:03:21;7.20;99.90
59067;DHT22;44854;50.838;4.438;2024-02-23T04:05:47;7.20;99.90
59067;DHT22;44854;50.838;4.438;2024-02-23T04:08:12;7.30;99.90
59067;DHT22;44854;50.838;4.438;2024-02-23T04:10:38;7.20;99.90
59067;DHT22;44854;50.838;4.438;2024-02-23T04:13:04;7.20;99.90
59067;DHT22;44854;50.838;4.438;2024-02-23T04:15:30;7.20;99.90
59067;DHT22;44854;50.838;4.438;2024-02-23T04:17:55;7.20;99.90
59067;DHT22;44854;50.838;4.438;2024-02-23T04:20:21;7.20;99.90
59067;DHT22;44854;50.838;4.438;2024-02-23T04:22:47;7.10;99.90
59067;DHT22;44854;50.838;4.438;2024-02-23T04:25:14;7.20;99.90
59067;DHT22;44854;50.838;4.438;2024-02-23T04:27:41;7.20;99.90
59067;DHT22;44854;50.838;4.438;2024-02-23T04:30:07;7.20;99.90
59067;DHT22;44854;50.838;4.438;2024-02-23T04:32:34;7.30;99.90
59067;DHT22;44854;50.838;4.438;2024-02-23T04:35:00;7.20;99.90
59067;DHT22;44854;50.838;4.438;2024-02-23T04:37:25;7.20;99.90
59067;DHT22;44854;50.838;4.438;2024-02-23T04:39:51;7.10;99.90
59067;DHT22;44854;50.838;4.438;2024-02-23T04:42:17;7.10;99.90
59067;DHT22;44854;50.838;4.438;2024-02-23T04:44:42;7.20;99.90
59067;DHT22;44854;50.838;4.438;2024-02-23T04:47:08;7.20;99.90
59067;DHT22;44854;50.838;4.438;2024-02-23T04:49:34;7.10;99.90
59067;DHT22;44854;50.838;4.438;2024-02-23T04:52:00;7.30;99.90
59067;DHT22;44854;50.838;4.438;2024-02-23T04:54:26;7.30;99.90
59067;DHT22;44854;50.838;4.438;2024-02-23T04:56:52;7.30;99.90
59067;DHT22;44854;50.838;4.438;2024-02-23T04:59:18;7.20;99.90
59067;DHT22;44854;50.838;4.438;2024-02-23T05:01:43;7.10;99.90
59067;DHT22;44854;50.838;4.438;2024-02-23T05:04:09;7.10;99.90
59067;DHT22;44854;50.838;4.438;2024-02-23T05:06:35;7.20;99.90
59067;DHT22;44854;50.838;4.438;2024-02-23T05:09:01;7.30;99.90
59067;DHT22;44854;50.838;4.438;2024-02-23T05:11:27;7.30;99.90
59067;DHT22;44854;50.838;4.438;2024-02-23T05:13:53;7.30;99.90
59067;DHT22;44854;50.838;4.438;2024-02-23T05:16:18;7.30;99.90
59067;DHT22;44854;50.838;4.438;2024-02-23T05:18:45;7.30;99.90
59067;DHT22;44854;50.838;4.438;2024-02-23T05:21:14;7.30;99.90
59067;DHT22;44854;50.838;4.438;2024-02-23T05:23:39;7.30;99.90
59067;DHT22;44854;50.838;4.438;2024-02-23T05:26:05;7.20;99.90
59067;DHT22;44854;50.838;4.438;2024-02-23T05:28:31;7.10;99.90
59067;DHT22;44854;50.838;4.438;2024-02-23T05:30:56;7.30;99.90
59067;DHT22;44854;50.838;4.438;2024-02-23T05:33:23;7.30;99.90
59067;DHT22;44854;50.838;4.438;2024-02-23T05:35:49;7.30;99.90
59067;DHT22;44854;50.838;4.438;2024-02-23T05:38:15;7.30;99.90
59067;DHT22;44854;50.838;4.438;2024-02-23T05:40:41;7.30;99.90
59067;DHT22;44854;50.838;4.438;2024-02-23T05:43:07;7.30;99.90
59067;DHT22;44854;50.838;4.438;2024-02-23T05:45:33;7.30;99.90
59067;DHT22;44854;50.838;4.438;2024-02-23T05:47:58;7.30;99.90
59067;DHT22;44854;50.838;4.438;2024-02-23T05:50:24;7.30;99.90
59067;DHT22;44854;50.838;4.438;2024-02-23T05:52:50;7.20;99.90
59067;DHT22;44854;50.838;4.438;2024-02-23T05:55:16;7.20;99.90
59067;DHT22;44854;50.838;4.438;2024-02-23T05:57:41;7.30;99.90
59067;DHT22;44854;50.838;4.438;2024-02-23T06:00:08;7.20;99.90
59067;DHT22;44854;50.838;4.438;2024-02-23T06:02:33;7.20;99.90
59067;DHT22;44854;50.838;4.438;2024-02-23T06:04:59;7.20;99.90
59067;DHT22;44854;50.838;4.438;2024-02-23T06:07:25;7.20;99.90
59067;DHT22;44854;50.838;4.438;2024-02-23T06:09:55;7.20;99.90
59067;DHT22;44854;50.838;4.438;2024-02-23T06:12:22;7.30;99.90
59067;DHT22;44854;50.838;4.438;2024-02-23T06:14:47;7.30;99.90
59067;DHT22;44854;50.838;4.438;2024-02-23T06:17:13;7.30;99.90
59067;DHT22;44854;50.838;4.438;2024-02-23T06:19:39;7.30;99.90
59067;DHT22;44854;50.838;4.438;2024-02-23T06:22:04;7.30;99.90
59067;DHT22;44854;50.838;4.438;2024-02-23T06:24:30;7.30;99.90
59067;DHT22;44854;50.838;4.438;2024-02-23T06:26:56;7.30;99.90
59067;DHT22;44854;50.838;4.438;2024-02-23T06:29:23;7.30;99.90
59067;DHT22;44854;50.838;4.438;2024-02-23T06:31:49;7.30;99.90
59067;DHT22;44854;50.838;4.438;2024-02-23T06:34:15;7.30;99.90
59067;DHT22;44854;50.838;4.438;2024-02-23T06:36:41;7.30;99.90
59067;DHT22;44854;50.838;4.438;2024-02-23T06:39:07;7.40;99.90
59067;DHT22;44854;50.838;4.438;2024-02-23T06:41:34;7.40;99.90
59067;DHT22;44854;50.838;4.438;2024-02-23T06:44:00;7.50;99.90
59067;DHT22;44854;50.838;4.438;2024-02-23T06:46:26;7.50;99.90
59067;DHT22;44854;50.838;4.438;2024-02-23T06:48:51;7.50;99.90
59067;DHT22;44854;50.838;4.438;2024-02-23T06:51:17;7.50;99.90
59067;DHT22;44854;50.838;4.438;2024-02-23T06:53:45;7.50;99.90
59067;DHT22;44854;50.838;4.438;2024-02-23T06:56:11;7.60;99.90
59067;DHT22;44854;50.838;4.438;2024-02-23T06:58:37;7.60;99.90
59067;DHT22;44854;50.838;4.438;2024-02-23T07:01:04;7.60;99.90
59067;DHT22;44854;50.838;4.438;2024-02-23T07:03:32;7.50;99.90
59067;DHT22;44854;50.838;4.438;2024-02-23T07:05:58;7.40;99.90
59067;DHT22;44854;50.838;4.438;2024-02-23T07:08:24;7.50;99.90
59067;DHT22;44854;50.838;4.438;2024-02-23T07:10:50;7.40;99.90
59067;DHT22;44854;50.838;4.438;2024-02-23T07:13:17;7.50;99.90
59067;DHT22;44854;50.838;4.438;2024-02-23T07:15:43;7.60;99.90
59067;DHT22;44854;50.838;4.438;2024-02-23T07:18:09;7.60;99.90
59067;DHT22;44854;50.838;4.438;2024-02-23T07:20:36;7.60;99.90
59067;DHT22;44854;50.838;4.438;2024-02-23T07:23:02;7.60;99.90
59067;DHT22;44854;50.838;4.438;2024-02-23T07:25:27;7.70;99.90
59067;DHT22;44854;50.838;4.438;2024-02-23T07:27:55;7.70;99.90
59067;DHT22;44854;50.838;4.438;2024-02-23T07:30:21;7.80;99.90
59067;DHT22;44854;50.838;4.438;2024-02-23T07:32:46;7.90;99.90
59067;DHT22;44854;50.838;4.438;2024-02-23T07:35:12;7.90;99.90
59067;DHT22;44854;50.838;4.438;2024-02-23T07:37:38;7.90;99.90
59067;DHT22;44854;50.838;4.438;2024-02-23T07:40:04;8.20;99.90
59067;DHT22;44854;50.838;4.438;2024-02-23T07:42:34;8.20;99.90
59067;DHT22;44854;50.838;4.438;2024-02-23T07:45:02;8.40;99.90
59067;DHT22;44854;50.838;4.438;2024-02-23T07:47:32;8.30;99.90
59067;DHT22;44854;50.838;4.438;2024-02-23T07:49:59;8.50;99.90
59067;DHT22;44854;50.838;4.438;2024-02-23T07:52:25;8.50;99.90
59067;DHT22;44854;50.838;4.438;2024-02-23T07:54:53;8.70;99.90
59067;DHT22;44854;50.838;4.438;2024-02-23T07:57:20;8.70;99.90
59067;DHT22;44854;50.838;4.438;2024-02-23T07:59:46;8.70;99.90
59067;DHT22;44854;50.838;4.438;2024-02-23T08:02:12;8.60;99.90
59067;DHT22;44854;50.838;4.438;2024-02-23T08:04:39;8.70;99.90
59067;DHT22;44854;50.838;4.438;2024-02-23T08:07:05;8.50;99.90
59067;DHT22;44854;50.838;4.438;2024-02-23T08:09:30;8.50;99.90
59067;DHT22;44854;50.838;4.438;2024-02-23T08:11:56;8.30;99.90
59067;DHT22;44854;50.838;4.438;2024-02-23T08:14:22;8.40;99.90
59067;DHT22;44854;50.838;4.438;2024-02-23T08:16:48;8.50;99.90
59067;DHT22;44854;50.838;4.438;2024-02-23T08:19:16;8.50;99.90
59067;DHT22;44854;50.838;4.438;2024-02-23T08:21:42;8.20;99.90
59067;DHT22;44854;50.838;4.438;2024-02-23T08:24:09;8.10;99.90
59067;DHT22;44854;50.838;4.438;2024-02-23T08:26:35;8.00;99.90
59067;DHT22;44854;50.838;4.438;2024-02-23T08:29:01;8.10;99.90
59067;DHT22;44854;50.838;4.438;2024-02-23T08:31:26;8.00;99.90
59067;DHT22;44854;50.838;4.438;2024-02-23T08:33:52;8.00;99.90
59067;DHT22;44854;50.838;4.438;2024-02-23T08:36:18;7.90;99.90
59067;DHT22;44854;50.838;4.438;2024-02-23T08:38:43;7.90;99.90
59067;DHT22;44854;50.838;4.438;2024-02-23T08:41:09;7.70;99.90
59067;DHT22;44854;50.838;4.438;2024-02-23T08:43:35;7.70;99.90
59067;DHT22;44854;50.838;4.438;2024-02-23T08:46:01;7.70;99.90
59067;DHT22;44854;50.838;4.438;2024-02-23T08:48:27;7.60;99.90
59067;DHT22;44854;50.838;4.438;2024-02-23T08:50:53;7.70;99.90
59067;DHT22;44854;50.838;4.438;2024-02-23T08:53:19;7.70;99.90
59067;DHT22;44854;50.838;4.438;2024-02-23T08:55:44;7.70;99.90
59067;DHT22;44854;50.838;4.438;2024-02-23T08:58:10;7.80;99.90
59067;DHT22;44854;50.838;4.438;2024-02-23T09:00:35;7.60;99.90
59067;DHT22;44854;50.838;4.438;2024-02-23T09:03:02;7.60;99.90
59067;DHT22;44854;50.838;4.438;2024-02-23T09:05:28;7.70;99.90
59067;DHT22;44854;50.838;4.438;2024-02-23T09:07:54;7.70;99.90
59067;DHT22;44854;50.838;4.438;2024-02-23T09:10:20;7.80;99.90
59067;DHT22;44854;50.838;4.438;2024-02-23T09:12:46;7.80;99.90
59067;DHT22;44854;50.838;4.438;2024-02-23T09:15:12;7.60;99.90
59067;DHT22;44854;50.838;4.438;2024-02-23T09:17:42;7.70;99.90
59067;DHT22;44854;50.838;4.438;2024-02-23T09:20:08;7.70;99.90
59067;DHT22;44854;50.838;4.438;2024-02-23T09:22:34;7.80;99.90
59067;DHT22;44854;50.838;4.438;2024-02-23T09:24:59;7.80;99.90
59067;DHT22;44854;50.838;4.438;2024-02-23T09:27:25;8.00;99.90
59067;DHT22;44854;50.838;4.438;2024-02-23T09:29:52;8.10;99.90
59067;DHT22;44854;50.838;4.438;2024-02-23T09:32:19;8.20;99.90
59067;DHT22;44854;50.838;4.438;2024-02-23T09:34:46;8.10;99.90
59067;DHT22;44854;50.838;4.438;2024-02-23T09:37:11;8.10;99.90
59067;DHT22;44854;50.838;4.438;2024-02-23T09:39:37;8.20;99.90
59067;DHT22;44854;50.838;4.438;2024-02-23T09:42:07;8.00;99.90
59067;DHT22;44854;50.838;4.438;2024-02-23T09:44:34;8.10;99.90
59067;DHT22;44854;50.838;4.438;2024-02-23T09:47:03;8.10;99.90
59067;DHT22;44854;50.838;4.438;2024-02-23T09:49:40;8.10;99.90
59067;DHT22;44854;50.838;4.438;2024-02-23T09:52:09;8.40;99.90
59067;DHT22;44854;50.838;4.438;2024-02-23T09:54:38;8.40;99.90
59067;DHT22;44854;50.838;4.438;2024-02-23T09:57:07;8.60;99.90
59067;DHT22;44854;50.838;4.438;2024-02-23T09:59:35;8.60;99.90
59067;DHT22;44854;50.838;4.438;2024-02-23T10:02:05;8.50;99.90
59067;DHT22;44854;50.838;4.438;2024-02-23T10:04:32;8.50;99.90
59067;DHT22;44854;50.838;4.438;2024-02-23T10:06:58;8.50;99.90
59067;DHT22;44854;50.838;4.438;2024-02-23T10:09:23;8.60;99.90
59067;DHT22;44854;50.838;4.438;2024-02-23T10:11:53;8.70;99.90
59067;DHT22;44854;50.838;4.438;2024-02-23T10:14:19;8.60;99.90
59067;DHT22;44854;50.838;4.438;2024-02-23T10:16:45;8.70;99.90
59067;DHT22;44854;50.838;4.438;2024-02-23T10:19:10;8.70;99.90
59067;DHT22;44854;50.838;4.438;2024-02-23T10:21:36;8.80;99.90
59067;DHT22;44854;50.838;4.438;2024-02-23T10:24:01;9.00;99.90
59067;DHT22;44854;50.838;4.438;2024-02-23T10:26:27;8.90;99.90
59067;DHT22;44854;50.838;4.438;2024-02-23T10:28:53;9.10;99.90
59067;DHT22;44854;50.838;4.438;2024-02-23T10:31:19;9.20;99.90
59067;DHT22;44854;50.838;4.438;2024-02-23T10:33:45;9.20;99.90
59067;DHT22;44854;50.838;4.438;2024-02-23T10:36:15;9.30;99.90
59067;DHT22;44854;50.838;4.438;2024-02-23T10:38:45;9.20;99.90
59067;DHT22;44854;50.838;4.438;2024-02-23T10:41:13;9.20;99.90
59067;DHT22;44854;50.838;4.438;2024-02-23T10:43:46;9.00;99.90
59067;DHT22;44854;50.838;4.438;2024-02-23T10:46:12;9.10;99.90
59067;DHT22;44854;50.838;4.438;2024-02-23T10:48:40;9.30;99.90
59067;DHT22;44854;50.838;4.438;2024-02-23T10:51:06;9.30;99.90
59067;DHT22;44854;50.838;4.438;2024-02-23T10:53:34;9.20;99.90
59067;DHT22;44854;50.838;4.438;2024-02-23T10:56:03;9.20;99.90
59067;DHT22;44854;50.838;4.438;2024-02-23T10:58:30;9.20;99.90
59067;DHT22;44854;50.838;4.438;2024-02-23T11:01:08;9.10;99.90
59067;DHT22;44854;50.838;4.438;2024-02-23T11:03:36;9.10;99.90
59067;DHT22;44854;50.838;4.438;2024-02-23T11:06:06;8.90;99.90
59067;DHT22;44854;50.838;4.438;2024-02-23T11:08:35;8.90;99.90
59067;DHT22;44854;50.838;4.438;2024-02-23T11:11:11;9.00;99.90
59067;DHT22;44854;50.838;4.438;2024-02-23T11:13:40;9.20;99.90
59067;DHT22;44854;50.838;4.438;2024-02-23T11:16:07;9.30;99.90
59067;DHT22;44854;50.838;4.438;2024-02-23T11:18:37;9.40;99.90
59067;DHT22;44854;50.838;4.438;2024-02-23T11:21:05;9.70;99.90
59067;DHT22;44854;50.838;4.438;2024-02-23T11:23:44;9.60;99.90
59067;DHT22;44854;50.838;4.438;2024-02-23T11:26:11;9.50;99.90
59067;DHT22;44854;50.838;4.438;2024-02-23T11:28:57;9.40;99.90
59067;DHT22;44854;50.838;4.438;2024-02-23T11:31:25;9.50;99.90
59067;DHT22;44854;50.838;4.438;2024-02-23T11:33:51;9.30;99.90
59067;DHT22;44854;50.838;4.438;2024-02-23T11:36:30;9.20;99.90
59067;DHT22;44854;50.838;4.438;2024-02-23T11:38:59;9.50;99.90
59067;DHT22;44854;50.838;4.438;2024-02-23T11:41:26;9.50;99.90
59067;DHT22;44854;50.838;4.438;2024-02-23T11:43:53;9.70;99.90
59067;DHT22;44854;50.838;4.438;2024-02-23T11:46:19;9.90;99.90
59067;DHT22;44854;50.838;4.438;2024-02-23T11:48:45;10.00;99.90
59067;DHT22;44854;50.838;4.438;2024-02-23T11:51:16;10.00;99.90
59067;DHT22;44854;50.838;4.438;2024-02-23T11:53:42;10.10;99.90
59067;DHT22;44854;50.838;4.438;2024-02-23T11:56:09;10.20;99.90
59067;DHT22;44854;50.838;4.438;2024-02-23T11:58:35;9.90;99.90
59067;DHT22;44854;50.838;4.438;2024-02-23T12:01:02;9.70;99.90
59067;DHT22;44854;50.838;4.438;2024-02-23T12:03:28;9.70;99.90
59067;DHT22;44854;50.838;4.438;2024-02-23T12:05:57;9.60;99.90
59067;DHT22;44854;50.838;4.438;2024-02-23T12:08:26;9.70;99.90
59067;DHT22;44854;50.838;4.438;2024-02-23T12:10:56;9.60;99.90
59067;DHT22;44854;50.838;4.438;2024-02-23T12:13:22;9.70;99.90
59067;DHT22;44854;50.838;4.438;2024-02-23T12:15:48;9.50;99.90
59067;DHT22;44854;50.838;4.438;2024-02-23T12:18:18;9.50;99.90
59067;DHT22;44854;50.838;4.438;2024-02-23T12:20:47;9.40;99.90
59067;DHT22;44854;50.838;4.438;2024-02-23T12:23:13;9.50;99.90
59067;DHT22;44854;50.838;4.438;2024-02-23T12:25:38;9.50;99.90
59067;DHT22;44854;50.838;4.438;2024-02-23T12:28:04;9.50;99.90
59067;DHT22;44854;50.838;4.438;2024-02-23T12:30:31;9.80;99.90
59067;DHT22;44854;50.838;4.438;2024-02-23T12:33:06;10.00;99.90
59067;DHT22;44854;50.838;4.438;2024-02-23T12:35:34;10.10;99.90
59067;DHT22;44854;50.838;4.438;2024-02-23T12:38:01;10.10;99.90
59067;DHT22;44854;50.838;4.438;2024-02-23T12:40:27;10.00;99.90
59067;DHT22;44854;50.838;4.438;2024-02-23T12:42:53;10.00;99.90
59067;DHT22;44854;50.838;4.438;2024-02-23T12:45:18;10.10;99.90
59067;DHT22;44854;50.838;4.438;2024-02-23T12:47:44;9.90;99.90
59067;DHT22;44854;50.838;4.438;2024-02-23T12:50:11;9.90;99.90
59067;DHT22;44854;50.838;4.438;2024-02-23T12:52:36;9.90;99.90
59067;DHT22;44854;50.838;4.438;2024-02-23T12:55:02;9.80;99.90
59067;DHT22;44854;50.838;4.438;2024-02-23T12:57:28;9.70;99.90
59067;DHT22;44854;50.838;4.438;2024-02-23T12:59:54;9.80;99.90
59067;DHT22;44854;50.838;4.438;2024-02-23T13:02:20;10.00;99.90
59067;DHT22;44854;50.838;4.438;2024-02-23T13:04:46;10.10;99.90
59067;DHT22;44854;50.838;4.438;2024-02-23T13:07:17;10.10;99.90
59067;DHT22;44854;50.838;4.438;2024-02-23T13:09:44;10.10;99.90
59067;DHT22;44854;50.838;4.438;2024-02-23T13:12:09;10.10;99.90
59067;DHT22;44854;50.838;4.438;2024-02-23T13:14:37;10.40;99.90
59067;DHT22;44854;50.838;4.438;2024-02-23T13:17:03;10.20;99.90
59067;DHT22;44854;50.838;4.438;2024-02-23T13:19:29;10.20;99.90
59067;DHT22;44854;50.838;4.438;2024-02-23T13:21:55;10.10;99.90
59067;DHT22;44854;50.838;4.438;2024-02-23T13:24:21;10.00;99.90
59067;DHT22;44854;50.838;4.438;2024-02-23T13:26:48;10.10;99.90
59067;DHT22;44854;50.838;4.438;2024-02-23T13:29:14;10.30;99.90
59067;DHT22;44854;50.838;4.438;2024-02-23T13:31:39;10.40;99.90
59067;DHT22;44854;50.838;4.438;2024-02-23T13:34:05;10.60;99.90
59067;DHT22;44854;50.838;4.438;2024-02-23T13:36:32;10.40;99.90
59067;DHT22;44854;50.838;4.438;2024-02-23T13:38:57;10.40;99.90
59067;DHT22;44854;50.838;4.438;2024-02-23T13:41:24;10.30;99.90
59067;DHT22;44854;50.838;4.438;2024-02-23T13:43:50;10.50;99.90
59067;DHT22;44854;50.838;4.438;2024-02-23T13:46:16;10.40;99.90
59067;DHT22;44854;50.838;4.438;2024-02-23T13:48:42;10.40;99.90
59067;DHT22;44854;50.838;4.438;2024-02-23T13:51:08;10.40;99.90
59067;DHT22;44854;50.838;4.438;2024-02-23T13:53:34;10.50;99.90
59067;DHT22;44854;50.838;4.438;2024-02-23T13:56:02;10.60;99.90
59067;DHT22;44854;50.838;4.438;2024-02-23T13:58:27;10.60;99.90
59067;DHT22;44854;50.838;4.438;2024-02-23T14:00:54;10.80;99.90
59067;DHT22;44854;50.838;4.438;2024-02-23T14:03:19;10.90;99.90
59067;DHT22;44854;50.838;4.438;2024-02-23T14:05:45;10.90;99.90
59067;DHT22;44854;50.838;4.438;2024-02-23T14:08:12;10.80;99.90
59067;DHT22;44854;50.838;4.438;2024-02-23T14:10:38;10.90;99.90
59067;DHT22;44854;50.838;4.438;2024-02-23T14:13:05;10.80;99.90
59067;DHT22;44854;50.838;4.438;2024-02-23T14:15:31;10.80;99.90
59067;DHT22;44854;50.838;4.438;2024-02-23T14:17:57;10.80;99.90
59067;DHT22;44854;50.838;4.438;2024-02-23T14:20:23;10.80;99.90
59067;DHT22;44854;50.838;4.438;2024-02-23T14:22:49;10.70;99.90
59067;DHT22;44854;50.838;4.438;2024-02-23T14:25:15;10.70;99.90
59067;DHT22;44854;50.838;4.438;2024-02-23T14:27:41;10.80;99.90
59067;DHT22;44854;50.838;4.438;2024-02-23T14:30:08;10.90;99.90
59067;DHT22;44854;50.838;4.438;2024-02-23T14:32:34;11.00;99.90
59067;DHT22;44854;50.838;4.438;2024-02-23T14:35:03;11.20;99.90
59067;DHT22;44854;50.838;4.438;2024-02-23T14:37:29;11.00;99.90
59067;DHT22;44854;50.838;4.438;2024-02-23T14:39:55;11.00;99.90
59067;DHT22;44854;50.838;4.438;2024-02-23T14:42:21;11.00;99.90
59067;DHT22;44854;50.838;4.438;2024-02-23T14:44:46;11.00;99.90
59067;DHT22;44854;50.838;4.438;2024-02-23T14:47:12;11.10;99.90
59067;DHT22;44854;50.838;4.438;2024-02-23T14:49:38;11.20;99.90
59067;DHT22;44854;50.838;4.438;2024-02-23T14:52:04;11.30;99.90
59067;DHT22;44854;50.838;4.438;2024-02-23T14:54:30;11.20;99.90
59067;DHT22;44854;50.838;4.438;2024-02-23T14:56:56;11.20;99.90
59067;DHT22;44854;50.838;4.438;2024-02-23T14:59:22;11.20;99.90
59067;DHT22;44854;50.838;4.438;2024-02-23T15:01:48;11.00;99.90
59067;DHT22;44854;50.838;4.438;2024-02-23T15:04:13;11.00;99.90
59067;DHT22;44854;50.838;4.438;2024-02-23T15:06:39;10.90;99.90
59067;DHT22;44854;50.838;4.438;2024-02-23T15:09:05;10.90;99.90
59067;DHT22;44854;50.838;4.438;2024-02-23T15:11:31;11.30;99.90
59067;DHT22;44854;50.838;4.438;2024-02-23T15:13:57;11.20;99.90
59067;DHT22;44854;50.838;4.438;2024-02-23T15:16:28;11.10;99.90
59067;DHT22;44854;50.838;4.438;2024-02-23T15:18:58;11.10;99.90
59067;DHT22;44854;50.838;4.438;2024-02-23T15:21:24;11.00;99.90
59067;DHT22;44854;50.838;4.438;2024-02-23T15:23:51;11.10;99.90
59067;DHT22;44854;50.838;4.438;2024-02-23T15:26:17;11.10;99.90
59067;DHT22;44854;50.838;4.438;2024-02-23T15:28:43;11.20;99.90
59067;DHT22;44854;50.838;4.438;2024-02-23T15:31:11;11.10;99.90
59067;DHT22;44854;50.838;4.438;2024-02-23T15:33:37;10.90;99.90
59067;DHT22;44854;50.838;4.438;2024-02-23T15:36:07;10.80;99.90
59067;DHT22;44854;50.838;4.438;2024-02-23T15:38:35;10.80;99.90